Latest Weather Observations for South Channel Island

IDV60801

Issued at 8:22 pm EDT Tuesday 22 October 2019 (issued every 10 minutes, with the page automatically refreshed every 10 minutes)

About weather observations | Map of weather stations | Latest weather observations for VIC | Other Formats
Station Details ID: 086344 Name: SOUTH CHANNEL ISLAND Lat: -38.31 Lon: 144.80 Height: 9.0 m
Data from the previous 72 hours. | See also: Recent months at South Channel Island
Date/Time
EDT
Temp
°C
App
Temp
°C
Dew
Point
°C
Rel
Hum
%
Delta-T
°C
Wind Press
QNH
hPa
Press
MSL
hPa
Rain since
9am
mm
Dir  Spd
km/h
Gust
km/h
Spd
kts
Gust
kts
22/08:00pm - - - - - ENE 15 17 8 9 - - -
22/07:30pm - - - - - S 15 17 8 9 - - -
22/07:00pm - - - - - SSW 17 19 9 10 - - -
22/06:30pm - - - - - SSW 17 19 9 10 - - -
22/06:00pm - - - - - SW 13 15 7 8 - - -
22/05:30pm - - - - - SW 13 15 7 8 - - -
22/05:00pm - - - - - WSW 7 9 4 5 - - -
22/04:30pm - - - - - CALM 0 2 0 1 - - -
22/04:00pm - - - - - WSW 6 7 3 4 - - -
22/03:30pm - - - - - W 6 9 3 5 - - -
22/03:00pm - - - - - N 6 7 3 4 - - -
22/02:30pm - - - - - N 6 7 3 4 - - -
22/02:00pm - - - - - N 2 7 1 4 - - -
22/01:30pm - - - - - NNE 7 9 4 5 - - -
22/01:00pm - - - - - N 7 9 4 5 - - -
22/12:30pm - - - - - N 11 15 6 8 - - -
22/12:00pm - - - - - N 11 13 6 7 - - -
22/11:30am - - - - - NNE 13 15 7 8 - - -
22/11:00am - - - - - NNE 11 13 6 7 - - -
22/10:30am - - - - - NE 7 11 4 6 - - -
22/10:00am - - - - - ESE 9 11 5 6 - - -
22/09:30am - - - - - ENE 7 11 4 6 - - -
22/09:00am - - - - - CALM 0 0 0 0 - - -
22/08:30am - - - - - SE 9 11 5 6 - - -
22/08:00am - - - - - SSE 9 13 5 7 - - -
22/07:30am - - - - - S 9 15 5 8 - - -
22/07:00am - - - - - SW 4 9 2 5 - - -
22/06:30am - - - - - S 9 13 5 7 - - -
22/06:00am - - - - - S 7 9 4 5 - - -
22/05:30am - - - - - WSW 11 15 6 8 - - -
22/05:00am - - - - - CALM 0 6 0 3 - - -
22/04:30am - - - - - WSW 7 11 4 6 - - -
22/04:00am - - - - - SW 15 20 8 11 - - -
22/03:30am - - - - - SW 11 17 6 9 - - -
22/03:00am - - - - - SSW 15 17 8 9 - - -
22/02:30am - - - - - S 6 11 3 6 - - -
22/02:00am - - - - - WSW 13 20 7 11 - - -
22/01:30am - - - - - SW 19 24 10 13 - - -
22/01:00am - - - - - SW 13 19 7 10 - - -
22/12:30am - - - - - SW 11 15 6 8 - - -
22/12:00am - - - - - SSW 11 15 6 8 - - -
 
Date/Time
EDT
Temp
°C
App
Temp
°C
Dew
Point
°C
Rel
Hum
%
Delta-T
°C
Wind Press
QNH
hPa
Press
MSL
hPa
Rain since
9am
mm
Dir  Spd
km/h
Gust
km/h
Spd
kts
Gust
kts
21/11:30pm - - - - - SSW 13 19 7 10 - - -
21/11:00pm - - - - - SSW 17 20 9 11 - - -
21/10:30pm - - - - - SSW 17 24 9 13 - - -
21/10:00pm - - - - - SSW 15 19 8 10 - - -
21/09:30pm - - - - - SSW 17 22 9 12 - - -
21/09:00pm - - - - - S 17 22 9 12 - - -
21/08:30pm - - - - - S 19 24 10 13 - - -
21/08:00pm - - - - - S 19 26 10 14 - - -
21/07:30pm - - - - - S 20 24 11 13 - - -
21/07:00pm - - - - - SSW 20 26 11 14 - - -
21/06:30pm - - - - - SSW 20 22 11 12 - - -
21/06:00pm - - - - - SSW 15 17 8 9 - - -
21/05:30pm - - - - - SSW 17 19 9 10 - - -
21/05:00pm - - - - - SSW 17 20 9 11 - - -
21/04:30pm - - - - - SSW 17 20 9 11 - - -
21/04:00pm - - - - - SSW 13 19 7 10 - - -
21/03:30pm - - - - - S 11 13 6 7 - - -
21/03:00pm - - - - - SW 15 20 8 11 - - -
21/02:30pm - - - - - SW 13 20 7 11 - - -
21/02:00pm - - - - - SW 19 20 10 11 - - -
21/01:30pm - - - - - W 13 13 7 7 - - -
21/01:00pm - - - - - W 15 17 8 9 - - -
21/12:30pm - - - - - WSW 19 24 10 13 - - -
21/12:00pm - - - - - WSW 13 19 7 10 - - -
21/11:30am - - - - - WNW 11 13 6 7 - - -
21/11:00am - - - - - NW 13 15 7 8 - - -
21/10:30am - - - - - NNW 13 13 7 7 - - -
21/10:00am - - - - - NW 13 15 7 8 - - -
21/09:30am - - - - - NW 15 17 8 9 - - -
21/09:00am - - - - - WNW 15 19 8 10 - - -
21/08:30am - - - - - WNW 17 20 9 11 - - -
21/08:00am - - - - - WNW 15 20 8 11 - - -
21/07:30am - - - - - W 13 17 7 9 - - -
21/07:00am - - - - - W 17 20 9 11 - - -
21/06:30am - - - - - W 17 19 9 10 - - -
21/06:00am - - - - - WNW 17 20 9 11 - - -
21/05:30am - - - - - WNW 17 20 9 11 - - -
21/05:00am - - - - - WNW 20 26 11 14 - - -
21/04:30am - - - - - WNW 22 26 12 14 - - -
21/04:00am - - - - - WNW 22 26 12 14 - - -
21/03:30am - - - - - WNW 22 24 12 13 - - -
21/03:00am - - - - - W 15 19 8 10 - - -
21/02:30am - - - - - WSW 20 24 11 13 - - -
21/02:00am - - - - - WSW 19 22 10 12 - - -
21/01:30am - - - - - WNW 17 20 9 11 - - -
21/01:00am - - - - - WSW 20 26 11 14 - - -
21/12:30am - - - - - SW 24 32 13 17 - - -
21/12:00am - - - - - SW 20 26 11 14 - - -
 
Date/Time
EDT
Temp
°C
App
Temp
°C
Dew
Point
°C
Rel
Hum
%
Delta-T
°C
Wind Press
QNH
hPa
Press
MSL
hPa
Rain since
9am
mm
Dir  Spd
km/h
Gust
km/h
Spd
kts
Gust
kts
20/11:30pm - - - - - SW 24 28 13 15 - - -
20/11:00pm - - - - - SW 32 35 17 19 - - -
20/10:30pm - - - - - WSW 32 37 17 20 - - -
20/10:00pm - - - - - SW 32 37 17 20 - - -
20/09:30pm - - - - - SW 35 43 19 23 - - -
20/09:00pm - - - - - SW 33 41 18 22 - - -
20/08:30pm - - - - - SW 32 35 17 19 - - -
20/08:00pm - - - - - SW 32 39 17 21 - - -
20/07:30pm - - - - - SW 30 37 16 20 - - -
20/07:00pm - - - - - SW 32 37 17 20 - - -
20/06:30pm - - - - - SW 35 39 19 21 - - -
20/06:00pm - - - - - SW 32 37 17 20 - - -
20/05:30pm - - - - - SW 32 35 17 19 - - -
20/05:00pm - - - - - SW 28 33 15 18 - - -
20/04:30pm - - - - - SW 32 37 17 20 - - -
20/04:00pm - - - - - SW 32 39 17 21 - - -
20/03:30pm - - - - - SSW 32 35 17 19 - - -
20/03:00pm - - - - - SW 28 32 15 17 - - -
20/02:30pm - - - - - SW 30 32 16 17 - - -
20/02:00pm - - - - - SW 20 28 11 15 - - -
20/01:30pm - - - - - SW 22 26 12 14 - - -
20/01:00pm - - - - - WSW 17 22 9 12 - - -
20/12:30pm - - - - - WSW 19 24 10 13 - - -
20/12:00pm - - - - - W 28 32 15 17 - - -
20/11:30am - - - - - W 28 35 15 19 - - -
20/11:00am - - - - - W 33 37 18 20 - - -
20/10:30am - - - - - W 35 41 19 22 - - -
20/10:00am - - - - - W 32 37 17 20 - - -
20/09:30am - - - - - W 33 39 18 21 - - -
20/09:00am - - - - - WNW 33 39 18 21 - - -
20/08:30am - - - - - WNW 37 44 20 24 - - -
20/08:00am - - - - - WNW 35 41 19 22 - - -
20/07:30am - - - - - WNW 35 39 19 21 - - -
20/07:00am - - - - - WNW 32 37 17 20 - - -
20/06:30am - - - - - WNW 35 41 19 22 - - -
20/06:00am - - - - - WNW 35 41 19 22 - - -
20/05:30am - - - - - WNW 35 39 19 21 - - -
20/05:00am - - - - - WNW 35 41 19 22 - - -
20/04:30am - - - - - WNW 39 44 21 24 - - -
20/04:00am - - - - - WNW 39 46 21 25 - - -
20/03:30am - - - - - W 41 48 22 26 - - -
20/03:00am - - - - - WNW 43 50 23 27 - - -
20/02:30am - - - - - W 39 46 21 25 - - -
20/02:00am - - - - - W 39 44 21 24 - - -
20/01:30am - - - - - W 39 48 21 26 - - -
20/01:00am - - - - - WNW 41 52 22 28 - - -
20/12:30am - - - - - WNW 39 48 21 26 - - -
20/12:00am - - - - - WNW 39 46 21 25 - - -
 
Date/Time
EDT
Temp
°C
App
Temp
°C
Dew
Point
°C
Rel
Hum
%
Delta-T
°C
Wind Press
QNH
hPa
Press
MSL
hPa
Rain since
9am
mm
Dir  Spd
km/h
Gust
km/h
Spd
kts
Gust
kts
19/11:30pm - - - - - WNW 39 48 21 26 - - -
19/11:00pm - - - - - W 33 39 18 21 - - -
19/10:30pm - - - - - W 39 46 21 25 - - -
19/10:00pm - - - - - W 35 48 19 26 - - -
19/09:30pm - - - - - W 41 52 22 28 - - -
19/09:00pm - - - - - W 35 44 19 24 - - -
19/08:30pm - - - - - W 33 39 18 21 - - -

Other formats

Comma delimited format used in spreadsheet applications
http://www.bom.gov.au/fwo/IDV60801/IDV60801.94853.axf

JavaScript Object Notation format (JSON) in row-major order
http://www.bom.gov.au/fwo/IDV60801/IDV60801.94853.json

Data quality

Most of these data are generated automatically and are frequently updated. Quality checks on data are not normally performed. It is possible for incorrect values to appear. Refer to information at About Latest Weather Observations and please check the disclaimer before using these data.